Adrian, Texas
Current Conditions -  °F | °C
As of 5:15 PM on Friday 31 Oct 2014 (Local Time) from KHRX Reporting Station
Clear Clear  
Wind Chill: 63°   Ceiling: Unl
Heat Index: 63°   Visibility: 10mi
Dew Point: 32°   Wind: 9mph
Humidity: 31%   Direction: 120°ESE
Pressure: 30.35"   Gusts: NA
Location:  35.27°N, 102.67°W
Report Text: KHRX 312215Z AUTO 12008KT 10SM CLR 17/00 A3035 RMK AO2 T01721001
Loading
Personal Weather Stations






























Interactive Weather Map New forecast layout! Learn more

10-Day Weather Forecast

Advertisements
Track Severe Weather on mobile